Time;durP1;ratioP1;P1;durP2;ratioP2;P2;SDS_P1;SDS_P2;PMS_P1;PMS_P2;Temp;Humidity;BMP_temperature;BMP_pressure;BME280_temperature;BME280_humidity;BME280_pressure;Samples;Min_cycle;Max_cycle;Signal;HPM_P1;HPM_P2
2022/07/09 00:00:42;;;;;;;7.03;3.38;;;16.50;99.90;;;;;;5069974;28;20047;-86
2022/07/09 00:03:08;;;;;;;7.90;4.07;;;16.50;99.90;;;;;;5087806;28;20044;-87
2022/07/09 00:05:34;;;;;;;12.52;3.95;;;16.50;99.90;;;;;;5087259;28;20051;-87
2022/07/09 00:07:59;;;;;;;13.10;4.05;;;16.50;99.90;;;;;;5104761;28;20128;-87
2022/07/09 00:10:25;;;;;;;9.90;3.97;;;16.60;99.90;;;;;;5090141;28;20483;-87
2022/07/09 00:12:51;;;;;;;10.95;4.03;;;17.00;99.90;;;;;;5077203;28;20035;-87
2022/07/09 00:15:17;;;;;;;6.63;3.78;;;16.60;99.90;;;;;;5075917;28;20040;-87
2022/07/09 00:17:42;;;;;;;9.60;3.83;;;17.00;99.90;;;;;;5087203;28;20035;-86
2022/07/09 00:20:09;;;;;;;6.88;4.45;;;16.60;99.90;;;;;;5054589;28;20126;-87
2022/07/09 00:22:34;;;;;;;13.73;4.35;;;16.60;99.90;;;;;;5087071;28;20061;-87
2022/07/09 00:25:01;;;;;;;9.68;5.15;;;16.70;99.90;;;;;;5072251;27;20127;-87
2022/07/09 00:27:27;;;;;;;11.85;4.63;;;17.00;99.90;;;;;;5058255;28;20043;-87
2022/07/09 00:29:52;;;;;;;12.40;4.88;;;16.70;99.90;;;;;;5073099;28;20051;-86
2022/07/09 00:32:18;;;;;;;11.95;4.45;;;16.70;99.90;;;;;;5091681;27;20047;-87
2022/07/09 00:34:45;;;;;;;11.13;4.50;;;16.60;99.90;;;;;;5089809;28;20086;-86
2022/07/09 00:37:11;;;;;;;11.55;4.70;;;16.70;99.90;;;;;;5090898;28;20040;-87
2022/07/09 00:39:37;;;;;;;8.68;5.00;;;16.60;99.90;;;;;;5090459;28;20039;-87
2022/07/09 00:42:08;;;;;;;15.07;4.43;;;16.60;99.90;;;;;;5090802;28;20395;-91
2022/07/09 00:44:34;;;;;;;11.90;5.40;;;16.60;99.90;;;;;;5108219;28;20039;-88
2022/07/09 00:47:00;;;;;;;14.23;4.82;;;16.60;99.90;;;;;;5089820;28;20047;-88
2022/07/09 00:49:29;;;;;;;10.43;4.53;;;16.60;99.90;;;;;;5075460;28;20043;-88
2022/07/09 00:51:56;;;;;;;11.45;4.82;;;16.60;99.90;;;;;;5107013;28;20042;-89
2022/07/09 00:54:23;;;;;;;13.82;5.13;;;16.60;99.90;;;;;;5074532;28;20129;-87
2022/07/09 00:56:50;;;;;;;10.77;4.50;;;17.40;99.90;;;;;;5090429;28;20091;-88
2022/07/09 00:59:17;;;;;;;7.60;4.63;;;16.70;99.90;;;;;;5090657;28;20046;-88
2022/07/09 01:01:43;;;;;;;7.82;4.00;;;16.70;99.90;;;;;;5090963;28;20474;-88
2022/07/09 01:04:09;;;;;;;8.27;4.70;;;16.70;99.90;;;;;;5072529;28;20031;-88
2022/07/09 01:06:34;;;;;;;11.20;4.60;;;17.40;99.90;;;;;;5091373;28;20051;-88
2022/07/09 01:09:03;;;;;;;9.93;4.03;;;16.70;99.90;;;;;;5089224;28;20126;-88
2022/07/09 01:11:30;;;;;;;11.52;4.60;;;16.70;99.90;;;;;;5073930;28;20130;-88
2022/07/09 01:13:56;;;;;;;10.52;4.63;;;16.70;99.90;;;;;;5090190;28;20389;-88
2022/07/09 01:16:31;;;;;;;16.02;4.78;;;16.60;99.90;;;;;;5073213;28;20062;-87
2022/07/09 01:19:00;;;;;;;9.63;4.47;;;16.70;99.90;;;;;;5108465;28;20055;-88
2022/07/09 01:21:26;;;;;;;14.65;4.72;;;16.70;99.90;;;;;;5088952;28;20394;-88
2022/07/09 01:23:52;;;;;;;12.93;5.13;;;16.60;99.90;;;;;;5074998;28;20039;-88
2022/07/09 01:26:21;;;;;;;8.50;4.60;;;16.60;99.90;;;;;;5073454;28;20087;-88
2022/07/09 01:28:47;;;;;;;16.48;4.85;;;16.60;99.90;;;;;;5091434;28;20531;-89
2022/07/09 01:31:14;;;;;;;14.23;5.10;;;16.60;99.90;;;;;;5090445;28;20425;-88
2022/07/09 01:33:40;;;;;;;8.40;3.55;;;16.60;99.90;;;;;;5090267;28;20395;-88
2022/07/09 01:36:08;;;;;;;9.32;4.63;;;16.60;99.90;;;;;;5090712;28;20046;-88
2022/07/09 01:38:35;;;;;;;12.15;4.80;;;16.60;99.90;;;;;;5088681;28;20043;-87
2022/07/09 01:41:01;;;;;;;14.13;6.00;;;16.60;99.90;;;;;;5073663;28;20703;-88
2022/07/09 01:43:27;;;;;;;9.10;3.97;;;16.60;99.90;;;;;;5089313;28;20130;-88
2022/07/09 01:45:52;;;;;;;9.48;3.95;;;16.80;99.90;;;;;;5057005;28;20181;-87
2022/07/09 01:48:18;;;;;;;12.43;4.43;;;16.60;99.90;;;;;;5090266;28;20367;-88
2022/07/09 01:50:44;;;;;;;9.15;4.90;;;16.60;99.90;;;;;;5089667;28;20046;-87
2022/07/09 01:53:10;;;;;;;15.45;4.85;;;17.50;99.90;;;;;;5077229;27;20152;-88
2022/07/09 01:55:36;;;;;;;13.43;5.15;;;16.60;99.90;;;;;;5092805;27;20130;-88
2022/07/09 01:58:02;;;;;;;12.73;5.05;;;16.60;99.90;;;;;;5094489;27;20390;-88
2022/07/09 02:00:29;;;;;;;16.23;5.00;;;16.70;99.90;;;;;;5109739;27;20116;-88
2022/07/09 02:02:55;;;;;;;14.13;4.78;;;16.50;99.90;;;;;;5077012;27;20158;-88
2022/07/09 02:05:21;;;;;;;14.63;5.05;;;16.50;99.90;;;;;;5077533;27;20043;-88
2022/07/09 02:07:47;;;;;;;11.73;4.70;;;16.50;99.90;;;;;;5101166;27;20039;-88
2022/07/09 02:10:13;;;;;;;7.63;5.35;;;16.40;99.90;;;;;;5083563;27;20046;-89
2022/07/09 02:12:39;;;;;;;20.02;5.45;;;16.50;99.90;;;;;;5092301;27;20034;-87
2022/07/09 02:15:06;;;;;;;8.52;4.38;;;16.50;99.90;;;;;;5111125;27;20050;-88
2022/07/09 02:17:32;;;;;;;10.55;4.78;;;16.40;99.90;;;;;;5075761;27;20444;-88
2022/07/09 02:19:58;;;;;;;12.68;4.43;;;16.40;99.90;;;;;;5076492;27;20043;-88
2022/07/09 02:22:24;;;;;;;10.75;4.65;;;16.50;99.90;;;;;;5109728;27;20046;-88
2022/07/09 02:24:49;;;;;;;13.77;4.20;;;16.40;99.90;;;;;;5059218;27;20078;-88
2022/07/09 02:27:15;;;;;;;10.68;4.40;;;16.40;99.90;;;;;;5093002;27;20135;-88
2022/07/09 02:29:41;;;;;;;13.73;4.50;;;16.40;99.90;;;;;;5058665;27;20492;-88
2022/07/09 02:32:10;;;;;;;9.13;4.03;;;16.40;99.90;;;;;;5077298;27;20054;-88
2022/07/09 02:34:37;;;;;;;8.75;3.60;;;17.00;99.90;;;;;;5075138;27;20039;-89
2022/07/09 02:37:04;;;;;;;13.68;4.18;;;16.40;99.90;;;;;;5059615;27;20545;-88
2022/07/09 02:39:29;;;;;;;9.55;4.40;;;16.40;99.90;;;;;;5092360;27;20039;-88
2022/07/09 02:41:55;;;;;;;7.28;3.75;;;16.40;99.90;;;;;;5075630;27;20054;-88
2022/07/09 02:44:21;;;;;;;8.07;3.70;;;16.90;99.90;;;;;;5075809;27;20122;-87
2022/07/09 02:46:46;;;;;;;9.02;4.18;;;16.40;99.90;;;;;;5074927;27;20070;-87
2022/07/09 02:49:12;;;;;;;13.07;4.82;;;16.40;99.90;;;;;;5076410;27;20027;-88
2022/07/09 02:51:37;;;;;;;6.97;3.65;;;16.40;99.90;;;;;;5057419;27;20585;-89
2022/07/09 02:54:04;;;;;;;10.60;4.47;;;16.40;99.90;;;;;;5076134;27;20035;-88
2022/07/09 02:56:30;;;;;;;9.98;3.95;;;16.40;99.90;;;;;;5091740;27;20082;-88
2022/07/09 02:58:55;;;;;;;13.65;4.28;;;16.40;99.90;;;;;;5075391;27;20538;-88
2022/07/09 03:01:21;;;;;;;11.80;3.25;;;16.40;99.90;;;;;;5075255;27;20046;-88
2022/07/09 03:03:47;;;;;;;13.48;3.53;;;16.40;99.90;;;;;;5074711;27;20050;-87
2022/07/09 03:06:13;;;;;;;11.40;4.32;;;16.30;99.90;;;;;;5076229;27;20541;-88
2022/07/09 03:08:39;;;;;;;14.38;4.20;;;16.30;99.90;;;;;;5090776;27;20099;-88
2022/07/09 03:11:06;;;;;;;15.18;4.03;;;16.30;99.90;;;;;;5059550;27;20470;-88
2022/07/09 03:13:33;;;;;;;10.50;3.85;;;16.30;99.90;;;;;;5074718;27;20148;-88
2022/07/09 03:15:58;;;;;;;11.27;3.50;;;16.40;99.90;;;;;;5075074;27;20130;-88
2022/07/09 03:18:24;;;;;;;14.27;3.85;;;16.30;99.90;;;;;;5091859;27;20103;-87
2022/07/09 03:20:50;;;;;;;9.82;3.40;;;16.30;99.90;;;;;;5091037;27;20043;-88
2022/07/09 03:23:16;;;;;;;14.35;3.80;;;16.20;99.90;;;;;;5075266;27;20081;-89
2022/07/09 03:25:42;;;;;;;9.50;3.22;;;16.40;99.90;;;;;;5056869;27;20126;-88
2022/07/09 03:28:09;;;;;;;7.82;4.18;;;16.20;99.90;;;;;;5059208;27;20061;-88
2022/07/09 03:30:34;;;;;;;9.13;3.65;;;16.20;99.90;;;;;;5074467;27;20045;-87
2022/07/09 03:33:00;;;;;;;12.05;4.18;;;16.20;99.90;;;;;;5108836;27;20039;-87
2022/07/09 03:35:26;;;;;;;8.65;3.50;;;16.20;99.90;;;;;;5091061;27;20497;-87
2022/07/09 03:37:52;;;;;;;7.88;3.78;;;16.20;99.90;;;;;;5057315;27;20080;-87
2022/07/09 03:40:17;;;;;;;6.10;3.50;;;16.30;99.90;;;;;;5091664;27;20043;-86
2022/07/09 03:42:43;;;;;;;10.60;3.72;;;16.20;99.90;;;;;;5090332;27;20163;-86
2022/07/09 03:45:09;;;;;;;10.00;3.78;;;16.20;99.90;;;;;;5074867;27;20403;-86
2022/07/09 03:47:35;;;;;;;13.35;4.32;;;16.20;99.90;;;;;;5056553;27;20085;-87
2022/07/09 03:50:01;;;;;;;7.32;3.72;;;16.20;99.90;;;;;;5057831;27;20039;-86
2022/07/09 03:52:26;;;;;;;9.98;3.75;;;16.10;99.90;;;;;;5057344;27;20041;-87
2022/07/09 03:54:52;;;;;;;4.78;3.08;;;16.10;99.90;;;;;;5073774;27;20448;-88
2022/07/09 03:57:18;;;;;;;5.57;3.63;;;16.20;99.90;;;;;;5108266;27;20045;-87
2022/07/09 03:59:43;;;;;;;7.28;3.90;;;16.20;99.90;;;;;;5056156;27;20035;-87
2022/07/09 04:02:09;;;;;;;6.20;3.45;;;16.20;99.90;;;;;;5079022;27;20043;-87
2022/07/09 04:04:35;;;;;;;10.95;4.05;;;16.90;99.90;;;;;;5081137;27;20039;-87
2022/07/09 04:07:00;;;;;;;7.68;3.80;;;16.20;99.90;;;;;;5074776;27;20075;-87
2022/07/09 04:09:26;;;;;;;9.57;4.22;;;16.20;99.90;;;;;;5090480;27;20081;-87
2022/07/09 04:11:52;;;;;;;6.18;3.58;;;16.20;99.90;;;;;;5107654;27;20047;-87
2022/07/09 04:14:19;;;;;;;11.00;3.72;;;16.20;99.90;;;;;;5107584;27;20050;-86
2022/07/09 04:16:46;;;;;;;12.88;3.90;;;16.30;99.90;;;;;;5089878;27;20042;-86
2022/07/09 04:19:12;;;;;;;10.95;3.72;;;16.30;99.90;;;;;;5074423;27;20039;-86
2022/07/09 04:21:37;;;;;;;11.95;3.22;;;16.30;99.90;;;;;;5089125;27;20091;-87
2022/07/09 04:24:04;;;;;;;7.03;2.97;;;16.30;99.90;;;;;;5108601;27;20126;-86
2022/07/09 04:26:29;;;;;;;8.48;3.15;;;16.40;99.90;;;;;;5072685;27;20050;-87
2022/07/09 04:28:55;;;;;;;9.82;3.42;;;16.60;99.90;;;;;;5056771;28;20055;-87
2022/07/09 04:31:21;;;;;;;10.43;3.58;;;16.40;99.90;;;;;;5090657;28;20049;-87
2022/07/09 04:33:47;;;;;;;9.93;3.75;;;16.50;99.90;;;;;;5072457;27;20055;-87
2022/07/09 04:36:13;;;;;;;9.73;3.08;;;16.70;99.90;;;;;;5091435;28;20039;-87
2022/07/09 04:38:38;;;;;;;11.23;3.92;;;16.60;99.90;;;;;;5088978;28;20065;-87
2022/07/09 04:41:05;;;;;;;9.65;3.30;;;16.50;99.90;;;;;;5090723;28;20092;-87
2022/07/09 04:43:31;;;;;;;5.93;2.92;;;16.40;99.90;;;;;;5089595;28;20050;-86
2022/07/09 04:45:57;;;;;;;6.93;3.28;;;16.60;99.90;;;;;;5090383;28;20082;-87
2022/07/09 04:48:22;;;;;;;10.85;3.15;;;16.60;99.90;;;;;;5090800;28;20423;-87
2022/07/09 04:50:48;;;;;;;6.40;3.38;;;17.50;99.90;;;;;;5089650;28;20044;-87
2022/07/09 04:53:14;;;;;;;5.82;2.90;;;16.60;99.90;;;;;;5073954;28;20053;-87
2022/07/09 04:55:40;;;;;;;8.60;3.33;;;16.60;99.90;;;;;;5105535;28;20039;-87
2022/07/09 04:58:06;;;;;;;9.65;3.22;;;16.60;99.90;;;;;;5057280;28;20083;-88
2022/07/09 05:00:33;;;;;;;6.88;3.08;;;16.70;99.90;;;;;;5089541;28;20039;-87
2022/07/09 05:02:59;;;;;;;8.80;3.08;;;16.80;99.90;;;;;;5057655;28;20099;-88
2022/07/09 05:05:25;;;;;;;4.75;2.63;;;16.90;99.90;;;;;;5057499;28;20102;-88
2022/07/09 05:07:51;;;;;;;6.97;3.40;;;16.30;99.90;;;;;;5056449;28;20050;-88
2022/07/09 05:10:17;;;;;;;7.05;2.72;;;16.90;99.90;;;;;;5074350;28;20181;-88
2022/07/09 05:12:43;;;;;;;9.60;3.42;;;16.90;99.90;;;;;;5072101;28;20043;-88
2022/07/09 05:15:10;;;;;;;9.57;3.33;;;16.90;99.90;;;;;;5090724;28;20464;-89
2022/07/09 05:17:37;;;;;;;7.80;3.25;;;16.90;99.90;;;;;;5089238;28;20486;-88
2022/07/09 05:20:04;;;;;;;9.35;3.45;;;16.90;99.90;;;;;;5089959;28;20035;-88
2022/07/09 05:22:34;;;;;;;8.35;3.35;;;17.00;99.90;;;;;;5073199;28;20047;-88
2022/07/09 05:25:00;;;;;;;9.63;3.05;;;17.00;99.90;;;;;;5106238;27;20096;-87
2022/07/09 05:27:27;;;;;;;7.47;2.95;;;17.80;99.90;;;;;;5077715;27;20055;-88
2022/07/09 05:29:53;;;;;;;6.55;3.00;;;17.00;99.90;;;;;;5092305;27;20084;-88
2022/07/09 05:32:19;;;;;;;8.93;3.45;;;17.10;99.90;;;;;;5077567;27;20039;-89
2022/07/09 05:34:45;;;;;;;6.18;2.97;;;17.10;99.90;;;;;;5075614;27;20039;-89
2022/07/09 05:37:10;;;;;;;5.35;3.05;;;17.20;99.90;;;;;;5060254;27;20039;-88
2022/07/09 05:39:36;;;;;;;4.38;2.45;;;17.20;99.90;;;;;;5076787;27;20039;-88
2022/07/09 05:42:02;;;;;;;3.80;2.75;;;17.30;99.90;;;;;;5059916;27;20054;-88
2022/07/09 05:44:28;;;;;;;9.43;3.13;;;17.30;99.90;;;;;;5077291;27;20051;-89
2022/07/09 05:46:54;;;;;;;9.15;3.00;;;17.30;99.90;;;;;;5058835;27;20501;-88
2022/07/09 05:49:19;;;;;;;7.78;2.80;;;17.10;99.90;;;;;;5077424;27;20090;-88
2022/07/09 05:51:45;;;;;;;11.82;3.55;;;17.40;99.90;;;;;;5092266;27;20043;-88
2022/07/09 05:54:11;;;;;;;9.32;3.30;;;17.40;99.90;;;;;;5060196;27;20046;-88
2022/07/09 05:56:36;;;;;;;8.80;2.90;;;17.40;99.90;;;;;;5113471;27;20043;-88
2022/07/09 05:59:03;;;;;;;6.93;3.17;;;17.40;99.90;;;;;;5088079;27;20091;-87
2022/07/09 06:01:29;;;;;;;5.78;2.42;;;17.40;99.90;;;;;;5065034;27;20039;-88
2022/07/09 06:03:55;;;;;;;6.93;2.67;;;17.40;99.90;;;;;;5075374;27;20547;-89
2022/07/09 06:06:21;;;;;;;8.48;2.55;;;17.40;99.90;;;;;;5078186;27;20042;-88
2022/07/09 06:08:46;;;;;;;4.68;2.55;;;17.50;99.90;;;;;;5075042;27;20409;-89
2022/07/09 06:11:12;;;;;;;9.02;2.83;;;17.50;99.90;;;;;;5059855;27;20066;-88
2022/07/09 06:13:38;;;;;;;5.72;2.63;;;17.60;99.90;;;;;;5076005;27;20058;-90
2022/07/09 06:16:04;;;;;;;7.28;3.05;;;17.60;99.90;;;;;;5093081;27;20139;-90
2022/07/09 06:18:30;;;;;;;5.57;2.35;;;17.70;99.90;;;;;;5059663;27;20047;-88
2022/07/09 06:20:55;;;;;;;5.25;2.55;;;17.70;99.90;;;;;;5058011;27;20043;-88
2022/07/09 06:23:21;;;;;;;4.72;1.95;;;17.70;99.90;;;;;;5077049;27;20394;-87
2022/07/09 06:25:47;;;;;;;5.43;2.40;;;17.80;99.90;;;;;;5057750;27;20490;-87
2022/07/09 06:28:13;;;;;;;6.47;2.28;;;17.90;99.90;;;;;;5109597;27;20044;-87
2022/07/09 06:30:39;;;;;;;5.22;2.15;;;17.90;99.90;;;;;;5076099;27;20101;-90
2022/07/09 06:33:05;;;;;;;10.15;2.00;;;17.90;99.90;;;;;;5060095;27;20540;-89
2022/07/09 06:35:31;;;;;;;5.03;1.85;;;18.00;99.90;;;;;;5077325;27;20117;-90
2022/07/09 06:37:57;;;;;;;4.50;2.13;;;18.00;99.90;;;;;;5074482;27;20486;-88
2022/07/09 06:40:23;;;;;;;5.32;2.10;;;18.00;99.90;;;;;;5093505;27;20040;-90
2022/07/09 06:42:49;;;;;;;3.60;1.88;;;18.00;99.90;;;;;;5058187;27;20050;-90
2022/07/09 06:45:14;;;;;;;3.95;2.20;;;18.00;99.90;;;;;;5060531;27;20050;-87
2022/07/09 06:47:40;;;;;;;5.93;2.33;;;18.00;99.90;;;;;;5109187;27;20121;-88
2022/07/09 06:50:06;;;;;;;4.55;1.92;;;18.20;99.90;;;;;;5092384;27;20050;-88
2022/07/09 06:52:32;;;;;;;9.15;2.10;;;17.90;99.90;;;;;;5076197;27;20046;-87
2022/07/09 06:54:58;;;;;;;7.90;2.17;;;18.00;99.90;;;;;;5075131;27;20039;-85
2022/07/09 06:57:23;;;;;;;4.60;1.90;;;18.00;99.90;;;;;;5109701;27;20074;-84
2022/07/09 06:59:49;;;;;;;12.30;2.35;;;18.00;99.90;;;;;;5107581;27;20039;-84
2022/07/09 07:02:18;;;;;;;7.47;1.75;;;18.10;99.90;;;;;;5092712;27;20061;-84
2022/07/09 07:04:44;;;;;;;4.38;1.70;;;18.20;99.90;;;;;;5108702;27;20518;-84
2022/07/09 07:07:10;;;;;;;6.57;1.75;;;18.30;99.90;;;;;;5092260;27;20039;-85
2022/07/09 07:09:35;;;;;;;2.97;1.35;;;18.30;99.90;;;;;;5109977;27;20138;-84
2022/07/09 07:12:01;;;;;;;3.00;1.25;;;18.40;99.90;;;;;;5074645;27;20046;-85
2022/07/09 07:14:27;;;;;;;3.15;1.48;;;18.40;99.90;;;;;;5075867;27;20054;-84
2022/07/09 07:16:53;;;;;;;3.60;1.40;;;18.50;99.90;;;;;;5108871;27;20035;-85
2022/07/09 07:19:22;;;;;;;5.50;1.65;;;18.60;99.90;;;;;;5093140;27;20039;-84
2022/07/09 07:21:48;;;;;;;4.00;1.15;;;18.70;99.90;;;;;;5109356;27;20370;-85
2022/07/09 07:24:14;;;;;;;7.85;1.60;;;18.90;99.90;;;;;;5112801;27;20039;-86
2022/07/09 07:26:40;;;;;;;3.42;1.10;;;18.90;99.90;;;;;;5111047;27;20086;-85
2022/07/09 07:29:06;;;;;;;6.53;1.00;;;18.90;99.90;;;;;;5109743;27;20054;-84
2022/07/09 07:31:32;;;;;;;5.88;1.25;;;19.00;99.90;;;;;;5092327;27;20122;-85
2022/07/09 07:33:59;;;;;;;5.25;1.17;;;19.00;99.90;;;;;;5073870;27;20047;-83
2022/07/09 07:36:25;;;;;;;5.18;0.70;;;19.00;99.90;;;;;;5109831;27;20117;-87
2022/07/09 07:38:51;;;;;;;5.18;0.90;;;19.00;99.90;;;;;;5076047;27;20520;-89
2022/07/09 07:41:18;;;;;;;3.53;0.80;;;19.10;99.90;;;;;;5079323;27;20042;-88
2022/07/09 07:43:44;;;;;;;4.00;1.30;;;19.20;99.90;;;;;;5062730;27;20046;-90
2022/07/09 07:46:10;;;;;;;8.23;1.15;;;19.20;99.90;;;;;;5079764;27;20140;-89
2022/07/09 07:48:36;;;;;;;3.92;1.00;;;19.40;99.90;;;;;;5096390;28;20057;-89
2022/07/09 07:51:03;;;;;;;4.57;1.20;;;19.50;99.90;;;;;;5079798;27;20068;-89
2022/07/09 07:53:32;;;;;;;4.88;1.02;;;19.60;99.90;;;;;;5090468;27;20449;-90
2022/07/09 07:56:00;;;;;;;2.67;0.80;;;19.60;99.90;;;;;;5091607;27;20106;-90
2022/07/09 07:58:26;;;;;;;11.85;0.80;;;19.60;99.90;;;;;;5101338;27;20054;-89
2022/07/09 08:00:52;;;;;;;5.90;0.90;;;19.60;99.90;;;;;;5086940;27;20050;-90
2022/07/09 08:03:18;;;;;;;3.13;0.73;;;19.70;99.90;;;;;;5082551;27;20035;-91
2022/07/09 08:05:44;;;;;;;5.50;1.00;;;19.90;99.90;;;;;;5062628;27;20516;-91
2022/07/09 08:08:09;;;;;;;4.18;0.75;;;19.90;99.90;;;;;;5062046;27;20138;-92
2022/07/09 08:10:35;;;;;;;5.00;1.20;;;20.00;99.90;;;;;;5075910;27;20466;-85
2022/07/09 08:13:01;;;;;;;5.13;1.17;;;19.90;99.90;;;;;;5107844;27;20043;-85
2022/07/09 08:15:27;;;;;;;4.57;1.23;;;19.80;99.90;;;;;;5091769;27;20064;-86
2022/07/09 08:17:55;;;;;;;4.75;0.70;;;19.90;99.90;;;;;;5073452;27;20047;-86
2022/07/09 08:20:20;;;;;;;4.55;0.90;;;20.00;99.90;;;;;;5090163;27;20490;-83
2022/07/09 08:22:46;;;;;;;6.10;1.02;;;20.10;99.90;;;;;;5108008;27;20051;-83
2022/07/09 08:25:13;;;;;;;5.38;0.98;;;20.20;99.90;;;;;;5105752;28;20517;-84
2022/07/09 08:27:39;;;;;;;3.97;0.98;;;20.60;99.90;;;;;;5108099;28;20478;-84
2022/07/09 08:30:06;;;;;;;6.78;0.98;;;20.40;99.90;;;;;;5089236;27;20141;-84
2022/07/09 08:32:31;;;;;;;4.57;0.75;;;20.50;99.90;;;;;;5091008;27;20040;-85
2022/07/09 08:34:57;;;;;;;8.52;1.38;;;20.40;99.90;;;;;;5073012;27;20095;-84
2022/07/09 08:37:23;;;;;;;2.83;0.82;;;20.40;99.90;;;;;;5056984;27;20151;-84
2022/07/09 08:39:48;;;;;;;7.50;1.35;;;20.40;99.90;;;;;;5090382;28;20051;-84
2022/07/09 08:42:16;;;;;;;4.60;1.20;;;20.30;99.90;;;;;;5089069;28;20050;-83
2022/07/09 08:44:45;;;;;;;7.03;1.52;;;20.20;99.90;;;;;;5126477;28;20808;-86
2022/07/09 08:47:11;;;;;;;7.68;1.08;;;20.10;99.90;;;;;;5106188;28;20080;-83
2022/07/09 08:49:38;;;;;;;2.67;0.90;;;20.10;99.90;;;;;;5090776;28;20478;-85
2022/07/09 08:52:06;;;;;;;5.53;1.33;;;20.30;99.90;;;;;;5073088;28;20130;-85
2022/07/09 08:54:33;;;;;;;10.15;1.85;;;20.60;99.90;;;;;;5089967;28;20108;-84
2022/07/09 08:56:59;;;;;;;3.97;0.95;;;20.90;99.90;;;;;;5091072;28;20047;-84
2022/07/09 08:59:24;;;;;;;7.70;0.90;;;21.20;99.90;;;;;;5088990;28;20043;-85
2022/07/09 09:01:50;;;;;;;7.40;1.58;;;20.70;99.90;;;;;;5077471;27;20127;-85
2022/07/09 09:04:17;;;;;;;5.45;1.40;;;20.50;99.90;;;;;;5076481;27;20312;-85
2022/07/09 09:06:43;;;;;;;5.80;0.73;;;20.30;99.90;;;;;;5078162;27;20424;-85
2022/07/09 09:09:10;;;;;;;5.18;0.73;;;20.20;99.90;;;;;;5093867;27;20040;-86
2022/07/09 09:11:36;;;;;;;4.95;0.90;;;20.30;99.90;;;;;;5093994;27;20505;-85
2022/07/09 09:14:03;;;;;;;5.30;0.98;;;20.50;99.90;;;;;;5111914;27;20051;-85
2022/07/09 09:16:29;;;;;;;3.53;1.00;;;21.30;99.90;;;;;;5093544;27;20619;-85
2022/07/09 09:18:58;;;;;;;5.78;0.85;;;20.60;99.90;;;;;;5094971;27;20126;-86
2022/07/09 09:21:25;;;;;;;4.75;1.10;;;20.70;99.90;;;;;;5093347;27;20043;-84
2022/07/09 09:23:57;;;;;;;3.97;0.80;;;20.70;99.90;;;;;;5094606;27;20054;-85
2022/07/09 09:26:25;;;;;;;4.57;1.10;;;20.80;99.90;;;;;;5110766;27;20510;-85
2022/07/09 09:29:00;;;;;;;5.97;1.02;;;21.00;99.90;;;;;;5093673;27;20039;-84
2022/07/09 09:31:31;;;;;;;4.80;0.90;;;21.00;99.90;;;;;;5094778;27;20477;-86
2022/07/09 09:34:04;;;;;;;3.40;0.98;;;21.20;99.90;;;;;;5109448;27;20039;-86
2022/07/09 09:36:36;;;;;;;5.75;1.02;;;21.20;99.90;;;;;;5094280;27;20134;-85
2022/07/09 09:39:15;;;;;;;2.65;0.63;;;21.20;99.90;;;;;;5093208;27;20553;-86
2022/07/09 09:41:43;;;;;;;3.25;0.60;;;21.30;99.90;;;;;;5093332;27;20069;-86
2022/07/09 09:44:11;;;;;;;5.32;0.82;;;21.40;99.90;;;;;;5110701;27;20039;-85
2022/07/09 09:46:38;;;;;;;3.63;0.77;;;21.40;99.90;;;;;;5092633;27;20054;-85
2022/07/09 09:49:07;;;;;;;5.15;0.90;;;21.40;99.90;;;;;;5077649;27;20046;-85
2022/07/09 09:51:36;;;;;;;4.88;1.10;;;21.40;99.90;;;;;;5111985;27;20046;-84
2022/07/09 09:54:03;;;;;;;2.78;0.93;;;21.60;99.90;;;;;;5131412;27;20039;-84
2022/07/09 09:56:31;;;;;;;3.55;1.02;;;21.70;99.90;;;;;;5076858;27;20053;-85
2022/07/09 09:58:58;;;;;;;5.63;1.05;;;22.30;99.90;;;;;;5110318;27;20390;-85
2022/07/09 10:01:25;;;;;;;6.18;1.50;;;21.90;99.90;;;;;;5129206;27;20553;-86
2022/07/09 10:03:51;;;;;;;6.50;1.10;;;21.90;99.90;;;;;;5092475;27;20035;-86
2022/07/09 10:06:16;;;;;;;5.50;1.15;;;21.80;99.90;;;;;;5110974;27;20544;-85
2022/07/09 10:08:42;;;;;;;5.70;1.05;;;21.80;99.90;;;;;;5075420;27;20050;-85
2022/07/09 10:11:08;;;;;;;6.15;1.00;;;21.70;99.90;;;;;;5093337;27;20080;-86
2022/07/09 10:13:37;;;;;;;8.40;1.08;;;21.60;99.90;;;;;;5091704;27;20077;-85
2022/07/09 10:16:04;;;;;;;4.90;0.85;;;21.40;99.90;;;;;;5111938;27;20043;-84
2022/07/09 10:18:29;;;;;;;6.40;1.02;;;21.00;99.90;;;;;;5116386;27;20047;-85
2022/07/09 10:20:56;;;;;;;6.13;1.35;;;20.60;99.90;;;;;;5110985;27;20103;-84
2022/07/09 10:23:23;;;;;;;3.17;0.90;;;20.30;99.90;;;;;;5094400;27;20390;-84
2022/07/09 10:25:52;;;;;;;6.50;1.10;;;20.00;99.90;;;;;;5109322;27;20120;-84
2022/07/09 10:28:19;;;;;;;2.97;0.77;;;19.80;99.90;;;;;;5092956;27;20035;-84
2022/07/09 10:30:46;;;;;;;7.38;1.13;;;19.80;99.90;;;;;;5109354;27;20075;-85
2022/07/09 10:33:12;;;;;;;6.07;1.33;;;19.60;99.90;;;;;;5109287;27;20039;-85
2022/07/09 10:35:41;;;;;;;10.57;1.25;;;19.50;99.90;;;;;;5092869;27;20039;-84
2022/07/09 10:38:07;;;;;;;6.75;0.75;;;19.50;99.90;;;;;;5091559;27;20126;-85
2022/07/09 10:40:42;;;;;;;4.50;1.08;;;19.70;99.90;;;;;;5093146;27;20043;-85
2022/07/09 10:43:08;;;;;;;10.18;1.42;;;19.50;99.90;;;;;;5091813;27;20047;-85
2022/07/09 10:45:34;;;;;;;10.77;1.55;;;20.00;99.90;;;;;;5093245;27;20062;-85
2022/07/09 10:48:01;;;;;;;4.57;1.05;;;19.60;99.90;;;;;;5092182;27;20520;-85
2022/07/09 10:50:29;;;;;;;7.00;1.20;;;19.60;99.90;;;;;;5092677;27;20074;-85
2022/07/09 10:52:55;;;;;;;4.38;0.80;;;19.80;99.90;;;;;;5093151;27;20039;-84
2022/07/09 10:55:26;;;;;;;5.80;1.05;;;19.80;99.90;;;;;;5091605;27;20042;-85
2022/07/09 10:57:52;;;;;;;7.05;1.30;;;19.90;99.90;;;;;;5092799;27;20114;-84
2022/07/09 11:00:20;;;;;;;5.22;1.45;;;19.90;99.90;;;;;;5109054;27;20047;-85
2022/07/09 11:02:54;;;;;;;4.70;0.85;;;19.90;99.90;;;;;;5109279;27;20043;-85
2022/07/09 11:05:20;;;;;;;4.05;0.90;;;20.10;99.90;;;;;;5092111;27;20058;-85
2022/07/09 11:08:04;;;;;;;2.63;0.63;;;20.20;99.90;;;;;;5091884;27;20047;-85
2022/07/09 11:10:32;;;;;;;7.60;0.93;;;20.30;99.90;;;;;;5110044;27;20525;-85
2022/07/09 11:12:59;;;;;;;3.13;0.88;;;20.50;99.90;;;;;;5091667;27;20043;-85
2022/07/09 11:15:30;;;;;;;4.68;0.55;;;20.70;99.90;;;;;;5092693;27;20156;-85
2022/07/09 11:18:09;;;;;;;5.57;0.75;;;20.90;99.90;;;;;;5076602;27;20126;-85
2022/07/09 11:20:41;;;;;;;6.65;0.68;;;21.00;99.90;;;;;;5108932;27;20047;-85
2022/07/09 11:23:09;;;;;;;5.45;0.75;;;21.00;99.90;;;;;;5093120;27;20122;-85
2022/07/09 11:25:35;;;;;;;2.08;0.60;;;20.90;99.90;;;;;;5092015;27;20164;-85
2022/07/09 11:28:02;;;;;;;4.22;0.68;;;20.80;99.90;;;;;;5076238;27;20046;-84
2022/07/09 11:30:30;;;;;;;3.88;0.50;;;20.90;99.90;;;;;;5075836;27;20451;-86
2022/07/09 11:32:56;;;;;;;6.57;1.02;;;20.90;99.90;;;;;;5109015;27;20053;-85
2022/07/09 11:35:29;;;;;;;7.03;0.70;;;20.90;99.90;;;;;;5092177;27;20130;-86
2022/07/09 11:38:00;;;;;;;3.65;0.70;;;20.90;99.90;;;;;;5091890;27;20401;-85
2022/07/09 11:40:27;;;;;;;3.60;0.73;;;20.90;99.90;;;;;;5092494;27;20301;-85
2022/07/09 11:42:53;;;;;;;3.55;0.50;;;21.10;99.90;;;;;;5108412;27;20368;-85
2022/07/09 11:45:24;;;;;;;2.30;0.40;;;21.40;99.90;;;;;;5109891;27;20104;-85
2022/07/09 11:47:50;;;;;;;5.35;0.70;;;21.60;99.90;;;;;;5092988;27;20050;-84
2022/07/09 11:50:20;;;;;;;2.92;0.57;;;21.70;99.90;;;;;;5108173;27;20047;-84
2022/07/09 11:52:48;;;;;;;3.47;0.40;;;21.80;99.90;;;;;;5108428;27;20122;-84
2022/07/09 11:55:16;;;;;;;2.85;0.50;;;21.80;99.90;;;;;;5090315;27;20130;-85
2022/07/09 11:57:52;;;;;;;5.45;0.43;;;21.80;99.90;;;;;;5091508;27;20091;-84
2022/07/09 12:00:22;;;;;;;6.25;1.35;;;21.90;99.90;;;;;;5090015;27;20051;-85
2022/07/09 12:02:48;;;;;;;3.03;0.60;;;21.90;99.90;;;;;;5107983;27;20070;-85
2022/07/09 12:05:27;;;;;;;3.47;0.63;;;21.80;99.90;;;;;;5107722;27;20134;-84
2022/07/09 12:07:52;;;;;;;1.50;0.40;;;21.60;99.90;;;;;;5107078;27;20095;-84
2022/07/09 12:10:28;;;;;;;4.70;0.60;;;21.50;99.90;;;;;;5108163;27;20039;-84
2022/07/09 12:12:56;;;;;;;2.90;0.98;;;21.60;99.90;;;;;;5125324;27;20051;-84
2022/07/09 12:15:22;;;;;;;5.65;1.38;;;21.90;99.90;;;;;;5090808;27;20489;-84
2022/07/09 12:17:59;;;;;;;3.08;0.55;;;22.00;99.90;;;;;;5091051;27;20043;-85
2022/07/09 12:20:30;;;;;;;3.83;0.70;;;22.10;99.90;;;;;;5090440;27;20058;-85
2022/07/09 12:22:56;;;;;;;4.47;0.95;;;22.20;99.90;;;;;;5108338;27;20117;-84
2022/07/09 12:25:22;;;;;;;2.08;0.43;;;22.20;99.90;;;;;;5088829;27;20055;-85
2022/07/09 12:27:51;;;;;;;6.50;0.73;;;22.20;99.90;;;;;;5091826;27;20043;-85
2022/07/09 12:30:18;;;;;;;5.63;0.70;;;22.40;99.90;;;;;;5090340;27;20070;-84
2022/07/09 12:32:44;;;;;;;4.30;0.93;;;22.40;99.90;;;;;;5108266;27;20047;-85
2022/07/09 12:35:11;;;;;;;8.60;0.82;;;22.30;99.90;;;;;;5109967;27;20066;-85
2022/07/09 12:37:37;;;;;;;4.50;0.70;;;22.20;99.90;;;;;;5111519;27;20394;-84
2022/07/09 12:40:05;;;;;;;7.55;0.85;;;22.00;99.90;;;;;;5127646;27;20439;-85
2022/07/09 12:42:31;;;;;;;9.77;0.80;;;22.00;99.90;;;;;;5107675;28;20123;-85